Time;durP1;ratioP1;P1;durP2;ratioP2;P2;SDS_P1;SDS_P2;PMS_P1;PMS_P2;Temp;Humidity;BMP_temperature;BMP_pressure;BME280_temperature;BME280_humidity;BME280_pressure;Samples;Min_cycle;Max_cycle;Signal;HPM_P1;HPM_P2
2023/01/04 00:00:04;;;;;;;53.97;33.75;;;;;;;5.24;100.00;101669.50;5004013;28;20093;-75
2023/01/04 00:02:30;;;;;;;47.72;34.22;;;;;;;5.02;100.00;101650.41;5006561;28;20067;-75
2023/01/04 00:04:56;;;;;;;74.10;52.95;;;;;;;5.56;100.00;101716.81;5006810;28;20121;-74
2023/01/04 00:07:21;;;;;;;48.38;33.17;;;;;;;5.69;100.00;101768.59;5006732;28;20049;-75
2023/01/04 00:09:47;;;;;;;43.47;31.02;;;;;;;5.88;100.00;101759.81;5003219;28;20460;-74
2023/01/04 00:12:12;;;;;;;48.78;31.40;;;;;;;5.23;100.00;101637.41;5010875;28;20053;-75
2023/01/04 00:14:38;;;;;;;48.40;31.80;;;;;;;5.89;100.00;101757.25;5009800;28;20049;-75
2023/01/04 00:17:03;;;;;;;44.15;29.98;;;;;;;5.33;100.00;101643.00;5007202;28;20437;-74
2023/01/04 00:19:28;;;;;;;50.28;32.45;;;;;;;5.85;100.00;101749.25;5013060;28;20393;-75
2023/01/04 00:21:54;;;;;;;61.00;50.33;;;;;;;5.87;100.00;101750.22;5007911;28;20046;-75
2023/01/04 00:24:19;;;;;;;47.22;31.95;;;;;;;5.76;100.00;101734.16;5001698;28;20100;-75
2023/01/04 00:26:45;;;;;;;43.88;28.80;;;;;;;4.93;100.00;101613.59;5000255;28;20132;-74
2023/01/04 00:29:12;;;;;;;53.03;31.10;;;;;;;5.03;100.00;101630.47;5006066;28;20037;-75
2023/01/04 00:31:37;;;;;;;68.88;48.47;;;;;;;5.11;100.00;101644.72;5009920;28;20033;-75
2023/01/04 00:34:05;;;;;;;46.03;33.40;;;;;;;4.79;100.00;101584.41;5005109;28;20521;-75
2023/01/04 00:36:31;;;;;;;40.40;27.75;;;;;;;5.16;100.00;101647.50;5001778;28;20057;-75
2023/01/04 00:39:13;;;;;;;41.80;30.55;;;;;;;5.06;100.00;101634.09;5012291;28;20500;-74
2023/01/04 00:41:44;;;;;;;47.47;28.80;;;;;;;5.40;100.00;101677.13;5001486;28;20049;-75
2023/01/04 00:44:11;;;;;;;57.97;46.40;;;;;;;6.16;100.00;101792.22;5015839;28;20371;-75
2023/01/04 00:46:37;;;;;;;47.95;29.73;;;;;;;6.07;100.00;101754.56;5005657;28;20052;-75
2023/01/04 00:49:03;;;;;;;47.63;27.88;;;;;;;5.38;100.00;101644.94;5002133;28;20054;-75
2023/01/04 00:51:30;;;;;;;46.78;28.42;;;;;;;5.36;100.00;101635.28;5010607;28;20054;-75
2023/01/04 00:53:57;;;;;;;39.70;26.10;;;;;;;6.04;100.00;101788.31;5007170;28;20042;-75
2023/01/04 00:56:23;;;;;;;62.40;41.85;;;;;;;5.86;100.00;101745.84;5011321;28;20104;-75
2023/01/04 00:58:48;;;;;;;61.30;41.33;;;;;;;5.35;100.00;101669.97;5008970;28;20034;-76
2023/01/04 01:01:14;;;;;;;42.15;26.70;;;;;;;5.98;100.00;101768.94;5010238;28;20050;-76
2023/01/04 01:03:39;;;;;;;44.40;28.42;;;;;;;5.42;100.00;101674.59;5007941;28;20481;-76
2023/01/04 01:06:06;;;;;;;40.92;26.08;;;;;;;5.15;100.00;101649.22;5007876;28;20136;-75
2023/01/04 01:08:33;;;;;;;40.03;26.95;;;;;;;5.11;100.00;101647.31;5011676;28;20062;-76
2023/01/04 01:11:07;;;;;;;62.58;43.40;;;;;;;5.89;100.00;101798.94;5014291;28;20026;-75
2023/01/04 01:13:33;;;;;;;44.72;29.45;;;;;;;5.90;100.00;101779.91;5007170;28;20049;-75
2023/01/04 01:16:11;;;;;;;39.70;24.73;;;;;;;6.12;100.00;101801.63;5003575;28;20054;-76
2023/01/04 01:18:38;;;;;;;42.55;26.92;;;;;;;5.38;100.00;101673.56;5004657;28;20062;-75
2023/01/04 01:21:05;;;;;;;47.20;32.05;;;;;;;6.07;100.00;101777.13;5007614;28;20048;-75
2023/01/04 01:23:30;;;;;;;63.28;43.30;;;;;;;6.04;100.00;101746.63;5004268;28;20057;-75
2023/01/04 01:26:03;;;;;;;41.20;29.88;;;;;;;5.34;100.00;101712.41;5007906;28;20500;-75
2023/01/04 01:28:29;;;;;;;41.85;25.85;;;;;;;5.64;100.00;101776.22;5013009;28;20053;-75
2023/01/04 01:30:55;;;;;;;48.75;29.30;;;;;;;5.08;100.00;101636.78;5003912;28;20054;-76
2023/01/04 01:33:20;;;;;;;57.55;41.53;;;;;;;5.63;100.00;101796.97;4997816;28;20053;-75
2023/01/04 01:35:46;;;;;;;58.53;44.13;;;;;;;5.89;100.00;101811.97;5004480;28;20084;-76
2023/01/04 01:38:11;;;;;;;38.22;25.67;;;;;;;5.15;100.00;101661.31;5002772;28;20116;-75
2023/01/04 01:40:41;;;;;;;39.65;26.73;;;;;;;5.72;100.00;101793.03;5006188;28;20512;-75
2023/01/04 01:43:18;;;;;;;36.55;25.25;;;;;;;5.91;100.00;101767.75;5001855;28;20060;-76
2023/01/04 01:45:46;;;;;;;50.78;40.15;;;;;;;5.96;100.00;101766.25;4999776;28;20749;-75
2023/01/04 01:48:16;;;;;;;42.70;28.08;;;;;;;5.35;100.00;101655.22;5002257;28;20061;-75
2023/01/04 01:50:52;;;;;;;54.33;42.22;;;;;;;6.09;100.00;101806.75;5001875;28;20073;-76
2023/01/04 01:53:19;;;;;;;42.72;28.15;;;;;;;5.97;100.00;101752.41;5010738;28;20045;-75
2023/01/04 01:55:47;;;;;;;46.30;26.60;;;;;;;6.20;100.00;101784.56;5003865;28;20034;-75
2023/01/04 01:58:20;;;;;;;61.78;42.40;;;;;;;5.56;100.00;101678.66;5008348;28;20045;-75
2023/01/04 02:00:46;;;;;;;41.30;27.73;;;;;;;5.53;100.00;101649.03;5008057;28;20046;-75
2023/01/04 02:03:20;;;;;;;39.25;30.10;;;;;;;5.72;100.00;101669.75;5007684;28;20481;-75
2023/01/04 02:05:50;;;;;;;50.22;25.90;;;;;;;6.42;100.00;101791.53;5004505;28;20172;-75
2023/01/04 02:08:17;;;;;;;38.85;27.75;;;;;;;6.40;100.00;101789.72;5000186;28;20776;-75
2023/01/04 02:10:43;;;;;;;48.50;39.63;;;;;;;6.39;100.00;101807.09;5014579;28;20045;-75
2023/01/04 02:13:13;;;;;;;43.42;26.02;;;;;;;6.48;100.00;101794.38;5003265;28;20140;-75
2023/01/04 02:16:04;;;;;;;45.85;29.20;;;;;;;5.95;100.00;101703.66;5002417;28;20462;-76
2023/01/04 02:18:42;;;;;;;47.53;26.40;;;;;;;5.85;100.00;101672.03;5011362;28;20050;-75
2023/01/04 02:21:32;;;;;;;55.47;40.47;;;;;;;5.98;100.00;101690.78;5003885;28;20073;-75
2023/01/04 02:24:35;;;;;;;38.55;27.90;;;;;;;6.59;100.00;101794.81;5014435;28;20045;-76
2023/01/04 02:27:42;;;;;;;55.05;40.30;;;;;;;6.75;100.00;101788.47;5006150;28;20053;-77
2023/01/04 02:30:19;;;;;;;41.38;27.73;;;;;;;6.84;100.00;101786.19;5002717;28;20107;-74
2023/01/04 02:33:22;;;;;;;36.22;25.42;;;;;;;6.67;100.00;101733.41;5001878;28;20494;-75
2023/01/04 02:36:18;;;;;;;46.05;26.63;;;;;;;7.05;100.00;101780.88;5000429;28;20050;-77
2023/01/04 02:39:08;;;;;;;42.83;25.00;;;;;;;7.14;100.00;101760.34;5004545;28;20494;-76
2023/01/04 02:41:50;;;;;;;49.75;37.97;;;;;;;7.04;100.00;101742.56;5006071;28;20060;-75
2023/01/04 02:44:54;;;;;;;49.67;36.40;;;;;;;7.10;100.00;101731.47;5024342;28;20401;-74
2023/01/04 02:50:31;;;;;;;;;;;;;;;7.40;100.00;101771.69;5000375;28;20045;-74
2023/01/04 02:53:04;;;;;;;37.20;24.35;;;;;;;6.49;100.00;101639.72;5004797;28;19921;-76
2023/01/04 02:55:43;;;;;;;55.97;37.22;;;;;;;6.72;100.00;101671.84;5002626;28;20050;-74
2023/01/04 02:58:40;;;;;;;53.42;38.63;;;;;;;6.42;100.00;101626.41;5003382;28;20149;-74
2023/01/04 03:07:50;;;;;;;47.00;36.45;;;;;;;6.77;100.00;101627.69;5002718;28;20060;-76
2023/01/04 03:10:27;;;;;;;43.42;34.80;;;;;;;7.42;100.00;101776.06;4999705;28;20565;-75
2023/01/04 03:13:06;;;;;;;46.58;31.90;;;;;;;6.97;100.00;101667.50;5001054;28;20062;-75
2023/01/04 03:15:35;;;;;;;45.15;36.42;;;;;;;7.32;100.00;101761.81;4997602;28;20045;-73
2023/01/04 03:18:12;;;;;;;45.63;33.97;;;;;;;7.11;100.00;101701.91;5002423;28;20079;-74
2023/01/04 03:20:38;;;;;;;45.83;33.90;;;;;;;7.44;100.00;101750.91;5001360;28;20069;-73
2023/01/04 03:37:44;;;;;;;43.30;33.40;;;;;;;7.39;100.00;101758.56;5007468;28;20084;-76
2023/01/04 03:48:58;;;;;;;42.30;32.95;;;;;;;7.46;100.00;101791.00;5002347;28;20060;-75
2023/01/04 03:51:31;;;;;;;41.67;34.25;;;;;;;7.40;100.00;101749.91;5003010;28;20045;-75
2023/01/04 03:54:10;;;;;;;37.60;29.33;;;;;;;7.37;100.00;101779.44;5007006;28;20038;-75
2023/01/04 03:56:40;;;;;;;38.33;29.88;;;;;;;7.43;100.00;101776.13;5002862;28;20056;-75
2023/01/04 03:59:07;;;;;;;43.97;30.88;;;;;;;7.01;100.00;101679.81;5005672;28;20044;-75
2023/01/04 04:01:34;;;;;;;41.38;32.25;;;;;;;7.58;100.00;101787.09;5008980;28;20138;-75
2023/01/04 04:09:29;;;;;;;36.40;29.27;;;;;;;7.46;100.00;101776.22;5006277;28;20061;-75
2023/01/04 04:11:54;;;;;;;41.60;30.17;;;;;;;6.83;100.00;101650.47;5003531;28;20042;-76
2023/01/04 04:14:20;;;;;;;50.63;33.78;;;;;;;7.38;100.00;101768.13;5002070;28;20046;-75
2023/01/04 04:16:45;;;;;;;42.03;31.13;;;;;;;6.58;100.00;101639.19;5007276;28;20041;-75
2023/01/04 04:19:11;;;;;;;54.78;35.65;;;;;;;7.32;100.00;101780.09;5007693;28;20527;-77
2023/01/04 04:21:36;;;;;;;53.08;37.22;;;;;;;7.09;100.00;101763.59;5002072;28;20433;-76
2023/01/04 04:24:02;;;;;;;45.33;33.78;;;;;;;6.98;100.00;101774.53;5010997;28;20050;-76
2023/01/04 04:26:28;;;;;;;48.65;36.80;;;;;;;7.06;100.00;101784.38;5003631;28;20412;-76
2023/01/04 04:28:53;;;;;;;51.13;35.03;;;;;;;6.98;100.00;101797.16;5005209;28;20108;-75
2023/01/04 04:31:19;;;;;;;51.42;34.47;;;;;;;7.09;100.00;101816.69;5001448;28;20500;-75
2023/01/04 04:33:44;;;;;;;50.15;35.72;;;;;;;6.64;100.00;101675.00;5005995;28;20046;-76
2023/01/04 04:36:10;;;;;;;51.83;37.35;;;;;;;7.00;100.00;101773.69;5001834;28;20452;-76
2023/01/04 04:38:35;;;;;;;52.53;39.22;;;;;;;7.37;100.00;101794.19;5005211;28;20076;-76
2023/01/04 04:43:57;;;;;;;45.15;35.05;;;;;;;6.85;100.00;101700.97;5004469;28;20544;-75
2023/01/04 04:46:22;;;;;;;50.65;36.83;;;;;;;6.66;100.00;101660.31;5005137;28;20046;-75
2023/01/04 04:48:48;;;;;;;55.88;38.88;;;;;;;7.56;100.00;101811.38;5003781;28;20050;-75
2023/01/04 04:51:13;;;;;;;53.25;37.42;;;;;;;7.26;100.00;101812.09;5001856;28;20377;-75
2023/01/04 04:53:39;;;;;;;45.70;37.42;;;;;;;6.85;100.00;101693.16;5004363;28;20045;-76
2023/01/04 04:56:05;;;;;;;50.72;38.78;;;;;;;7.54;100.00;101820.91;5001139;28;20541;-76
2023/01/04 04:58:32;;;;;;;55.28;36.35;;;;;;;7.58;100.00;101822.78;5003202;28;20034;-76
2023/01/04 05:00:57;;;;;;;51.03;35.83;;;;;;;6.92;100.00;101688.19;5007351;28;20049;-76
2023/01/04 05:03:23;;;;;;;49.80;36.88;;;;;;;7.58;100.00;101809.72;5002139;28;20155;-75
2023/01/04 05:05:48;;;;;;;45.97;35.35;;;;;;;6.95;100.00;101676.97;5000362;28;20057;-77
2023/01/04 05:08:14;;;;;;;44.35;34.92;;;;;;;7.61;100.00;101830.75;5002421;28;20042;-75
2023/01/04 05:10:39;;;;;;;46.63;31.17;;;;;;;7.67;100.00;101830.94;4997521;28;20608;-77
2023/01/04 05:13:09;;;;;;;49.55;35.75;;;;;;;6.95;100.00;101701.38;5000547;28;20108;-77
2023/01/04 05:15:41;;;;;;;39.63;32.20;;;;;;;6.75;100.00;101616.31;4999657;28;20520;-76
2023/01/04 05:18:10;;;;;;;44.15;30.73;;;;;;;7.98;100.00;101826.75;5002761;28;20089;-75
2023/01/04 05:20:36;;;;;;;38.42;28.08;;;;;;;6.97;100.00;101660.53;4999164;28;20579;-75
2023/01/04 05:23:01;;;;;;;45.38;30.80;;;;;;;7.66;100.00;101782.16;5010569;28;20034;-75
2023/01/04 05:25:27;;;;;;;44.92;33.38;;;;;;;7.05;100.00;101694.75;5009122;28;20041;-75
2023/01/04 05:27:52;;;;;;;45.83;32.88;;;;;;;7.24;100.00;101717.16;5001513;28;20064;-76
2023/01/04 05:33:03;;;;;;;45.85;28.15;;;;;;;7.90;100.00;101817.78;5004779;28;20053;-75
2023/01/04 05:35:29;;;;;;;39.70;30.88;;;;;;;7.02;100.00;101712.00;5001607;28;20356;-75
2023/01/04 05:37:55;;;;;;;50.47;31.48;;;;;;;7.69;100.00;101797.91;5004854;28;20572;-75
2023/01/04 05:40:21;;;;;;;43.53;30.88;;;;;;;7.70;100.00;101780.50;5012946;28;20068;-75
2023/01/04 05:42:47;;;;;;;61.10;30.58;;;;;;;7.94;100.00;101831.00;5006680;28;20045;-75
2023/01/04 05:45:14;;;;;;;37.97;29.73;;;;;;;6.86;100.00;101694.91;5006727;28;20515;-75
2023/01/04 05:47:39;;;;;;;51.00;31.10;;;;;;;7.30;100.00;101726.91;5001382;28;20473;-76
2023/01/04 05:50:06;;;;;;;52.95;31.33;;;;;;;7.89;100.00;101835.19;5008520;28;20041;-74
2023/01/04 05:52:32;;;;;;;47.50;30.70;;;;;;;7.93;100.00;101820.50;5008802;28;20041;-76
2023/01/04 05:54:57;;;;;;;46.83;30.70;;;;;;;7.91;100.00;101815.19;5009850;28;20147;-76
2023/01/04 05:57:23;;;;;;;54.08;27.17;;;;;;;7.31;100.00;101708.72;4998760;28;20442;-74
2023/01/04 05:59:48;;;;;;;44.03;32.33;;;;;;;8.18;100.00;101853.56;5007832;28;20364;-76
2023/01/04 06:02:18;;;;;;;42.17;26.73;;;;;;;7.76;100.00;101775.50;5004654;28;20125;-75
2023/01/04 06:04:43;;;;;;;38.70;27.23;;;;;;;8.09;100.00;101835.84;5009473;28;20064;-75
2023/01/04 06:07:09;;;;;;;41.45;27.85;;;;;;;7.22;100.00;101694.47;5004140;28;20160;-76
2023/01/04 06:09:34;;;;;;;38.67;26.88;;;;;;;7.40;100.00;101711.63;5005236;28;20165;-75
2023/01/04 06:12:00;;;;;;;42.55;28.40;;;;;;;8.08;100.00;101848.84;5006483;28;20076;-75
2023/01/04 06:14:25;;;;;;;36.95;27.10;;;;;;;8.06;100.00;101859.28;5003011;28;20052;-76
2023/01/04 06:16:51;;;;;;;47.42;28.67;;;;;;;8.02;100.00;101870.47;5010125;28;20481;-75
2023/01/04 06:19:16;;;;;;;41.72;29.08;;;;;;;7.11;100.00;101708.00;5009401;28;20493;-75
2023/01/04 06:21:42;;;;;;;40.65;29.02;;;;;;;7.22;100.00;101737.09;5002783;28;20417;-75
2023/01/04 06:24:09;;;;;;;42.50;31.85;;;;;;;8.06;100.00;101889.75;5006508;28;20141;-75
2023/01/04 06:26:35;;;;;;;41.33;29.40;;;;;;;8.15;100.00;101887.47;5008916;28;20046;-76
2023/01/04 06:29:00;;;;;;;41.58;28.88;;;;;;;8.12;100.00;101892.56;5007801;28;20045;-75
2023/01/04 06:31:26;;;;;;;39.83;30.17;;;;;;;7.88;100.00;101903.97;4995442;28;20752;-74
2023/01/04 06:33:51;;;;;;;56.58;42.45;;;;;;;6.50;100.00;101760.56;4998492;28;20046;-74
2023/01/04 06:36:16;;;;;;;65.43;46.03;;;;;;;6.51;100.00;101749.31;4990924;28;20080;-79
2023/01/04 06:38:42;;;;;;;65.88;45.28;;;;;;;7.14;100.00;101875.19;4994113;28;20121;-78
2023/01/04 06:41:07;;;;;;;69.38;46.88;;;;;;;7.18;100.00;101895.31;5000359;28;20042;-79
2023/01/04 06:43:33;;;;;;;73.65;44.85;;;;;;;7.39;100.00;101921.34;4996018;28;20033;-77
2023/01/04 06:46:00;;;;;;;67.90;44.08;;;;;;;7.54;100.00;101918.44;4996824;28;20062;-77
2023/01/04 06:48:26;;;;;;;66.18;39.63;;;;;;;6.81;100.00;101788.66;5006738;28;20087;-78
2023/01/04 06:50:51;;;;;;;59.53;40.03;;;;;;;7.53;100.00;101908.81;5005134;28;20073;-76
2023/01/04 06:53:17;;;;;;;57.53;43.17;;;;;;;7.65;100.00;101916.19;5005946;28;20461;-79
2023/01/04 06:55:44;;;;;;;59.08;42.50;;;;;;;7.63;100.00;101889.13;5005172;28;20049;-78
2023/01/04 06:58:09;;;;;;;62.20;41.10;;;;;;;7.59;100.00;101936.88;4996511;28;20068;-78
2023/01/04 07:00:34;;;;;;;70.30;40.45;;;;;;;7.54;100.00;101934.09;4996192;28;20046;-77
2023/01/04 07:03:00;;;;;;;71.07;43.85;;;;;;;7.04;100.00;101814.75;5005254;28;20054;-77
2023/01/04 07:05:26;;;;;;;67.28;46.78;;;;;;;7.15;100.00;101861.28;5010008;28;20047;-78
2023/01/04 07:07:51;;;;;;;66.10;45.83;;;;;;;6.99;100.00;101819.78;5011416;28;20069;-79
2023/01/04 07:10:16;;;;;;;67.43;48.00;;;;;;;7.27;100.00;101842.56;5003839;28;20507;-78
2023/01/04 07:12:42;;;;;;;73.78;45.97;;;;;;;7.40;100.00;101857.88;5001136;28;20105;-79
2023/01/04 07:15:08;;;;;;;63.47;50.13;;;;;;;7.66;100.00;101897.09;4994056;28;20561;-80
2023/01/04 07:17:33;;;;;;;62.10;43.13;;;;;;;7.98;100.00;101950.50;5000646;28;20456;-75
2023/01/04 07:19:59;;;;;;;70.47;45.75;;;;;;;7.73;100.00;101900.81;5003173;28;20481;-76
2023/01/04 07:22:24;;;;;;;78.20;52.00;;;;;;;7.30;100.00;101816.56;4998584;28;20409;-76
2023/01/04 07:24:50;;;;;;;87.90;60.53;;;;;;;7.08;100.00;101811.41;4990357;28;20038;-76
2023/01/04 07:27:15;;;;;;;92.13;61.08;;;;;;;7.05;100.00;101787.84;5001380;28;20684;-77
2023/01/04 07:29:43;;;;;;;68.10;44.58;;;;;;;7.90;100.00;101959.78;5008247;28;20042;-76
2023/01/04 07:32:10;;;;;;;80.65;47.30;;;;;;;7.60;100.00;101934.31;5004471;28;20029;-76
2023/01/04 07:34:36;;;;;;;55.35;36.10;;;;;;;6.90;100.00;101814.22;4997412;28;20076;-75
2023/01/04 07:37:02;;;;;;;52.97;39.60;;;;;;;6.97;100.00;101822.31;5001951;28;20050;-76
2023/01/04 07:39:28;;;;;;;55.58;37.95;;;;;;;7.48;100.00;101914.72;5007604;28;20040;-75
2023/01/04 07:41:53;;;;;;;67.50;35.10;;;;;;;7.05;100.00;101825.25;5008298;28;20042;-78
2023/01/04 07:44:20;;;;;;;48.60;33.67;;;;;;;7.27;100.00;101847.78;5005761;28;20053;-82
2023/01/04 07:46:46;;;;;;;53.65;36.55;;;;;;;6.86;100.00;101825.38;5007695;28;20030;-81
2023/01/04 07:49:15;;;;;;;63.50;41.05;;;;;;;6.82;100.00;101858.28;5000315;28;20060;-79
2023/01/04 07:51:40;;;;;;;73.13;40.00;;;;;;;7.73;100.00;101960.91;4998849;28;20053;-79
2023/01/04 07:54:06;;;;;;;63.92;36.95;;;;;;;7.18;100.00;101823.97;5007583;28;20387;-82
2023/01/04 07:56:32;;;;;;;47.55;37.17;;;;;;;7.47;100.00;101861.59;5004803;28;20109;-85
2023/01/04 07:58:58;;;;;;;53.80;37.42;;;;;;;7.95;100.00;101934.69;5001184;28;20057;-80
2023/01/04 08:01:25;;;;;;;52.17;32.33;;;;;;;7.37;100.00;101794.19;5013528;28;20049;-80
2023/01/04 08:03:52;;;;;;;46.25;35.03;;;;;;;7.92;100.00;101894.50;5007090;28;20077;-82
2023/01/04 08:06:19;;;;;;;52.00;33.13;;;;;;;7.61;100.00;101828.13;5005253;28;20041;-83
2023/01/04 08:08:44;;;;;;;40.92;29.13;;;;;;;8.19;100.00;101925.94;5009632;28;20041;-84
2023/01/04 08:11:14;;;;;;;41.25;28.25;;;;;;;8.54;100.00;101952.41;5001829;28;20045;-80
2023/01/04 08:13:40;;;;;;;40.42;28.05;;;;;;;7.94;100.00;101864.09;5007868;28;20025;-84
2023/01/04 08:16:06;;;;;;;40.67;27.90;;;;;;;8.02;100.00;101915.78;5004033;28;20073;-82
2023/01/04 08:18:31;;;;;;;38.17;26.83;;;;;;;7.78;100.00;101842.66;5000951;28;20074;-80
2023/01/04 08:21:05;;;;;;;65.03;29.90;;;;;;;8.54;100.00;101979.47;5003648;28;20092;-83
2023/01/04 08:23:31;;;;;;;64.97;30.00;;;;;;;8.06;100.00;101864.50;5004179;28;20050;-84
2023/01/04 08:26:09;;;;;;;38.95;24.33;;;;;;;8.61;100.00;101963.13;5005986;28;20040;-85
2023/01/04 08:28:35;;;;;;;40.70;24.80;;;;;;;7.82;100.00;101826.25;5004214;28;20057;-84
2023/01/04 08:31:07;;;;;;;31.85;22.88;;;;;;;8.40;100.00;101973.75;4994726;28;20058;-80
2023/01/04 08:33:34;;;;;;;36.75;20.52;;;;;;;8.47;100.00;101967.00;5006511;28;20083;-81
2023/01/04 08:36:27;;;;;;;31.10;22.08;;;;;;;8.66;100.00;101986.81;5007878;28;20078;-81
2023/01/04 08:38:58;;;;;;;35.17;21.10;;;;;;;7.58;100.00;101836.72;5005938;28;20062;-79
2023/01/04 08:41:23;;;;;;;30.35;21.50;;;;;;;8.50;100.00;101980.22;5008833;28;20128;-80
2023/01/04 08:43:49;;;;;;;31.70;19.85;;;;;;;7.76;100.00;101854.78;5013002;28;20029;-79
2023/01/04 08:46:14;;;;;;;32.47;20.63;;;;;;;8.74;100.00;101977.50;5003244;28;20041;-81
2023/01/04 08:48:41;;;;;;;27.15;18.88;;;;;;;8.75;100.00;101971.44;5005918;28;20050;-83
2023/01/04 08:51:14;;;;;;;35.33;20.10;;;;;;;8.21;100.00;101862.38;5005222;28;20133;-81
2023/01/04 08:53:40;;;;;;;34.53;17.08;;;;;;;8.53;100.00;101943.69;5012095;28;20128;-82
2023/01/04 08:56:06;;;;;;;30.27;17.67;;;;;;;7.83;100.00;101814.94;5004677;28;20682;-80
2023/01/04 08:58:33;;;;;;;31.30;18.08;;;;;;;8.04;100.00;101851.38;5015836;28;20037;-79
2023/01/04 09:01:05;;;;;;;27.58;16.33;;;;;;;8.63;100.00;101929.16;5010810;28;20564;-80
2023/01/04 09:03:31;;;;;;;33.97;19.83;;;;;;;8.57;100.00;101911.56;5008036;28;20093;-80
2023/01/04 09:06:08;;;;;;;29.88;17.50;;;;;;;8.80;100.00;101954.19;5001059;28;20050;-78
2023/01/04 09:08:34;;;;;;;23.67;15.82;;;;;;;8.11;100.00;101799.31;5007506;28;20065;-76
2023/01/04 09:11:26;;;;;;;44.25;20.05;;;;;;;8.95;100.00;101935.44;5005302;28;20045;-75
2023/01/04 09:13:59;;;;;;;28.40;15.95;;;;;;;7.99;100.00;101794.56;4995207;28;20050;-76
2023/01/04 09:16:25;;;;;;;24.77;17.95;;;;;;;8.94;100.00;101923.16;4999721;28;20054;-74
2023/01/04 09:18:50;;;;;;;31.95;17.75;;;;;;;8.65;100.00;101867.31;4997592;28;20049;-75
2023/01/04 09:21:19;;;;;;;23.08;16.40;;;;;;;9.10;100.00;101937.63;4998938;28;20042;-76
2023/01/04 09:23:45;;;;;;;23.73;16.42;;;;;;;8.72;100.00;101928.59;5000376;28;20050;-77
2023/01/04 09:26:16;;;;;;;30.90;18.70;;;;;;;7.73;100.00;101844.22;5007085;28;20044;-76
2023/01/04 09:28:42;;;;;;;26.67;17.08;;;;;;;8.12;100.00;101898.69;5004127;28;20050;-77
2023/01/04 09:31:14;;;;;;;24.77;14.50;;;;;;;7.76;100.00;101831.25;5007135;28;20046;-78
2023/01/04 09:33:40;;;;;;;40.55;19.48;;;;;;;8.20;100.00;101977.41;4999017;28;20084;-77
2023/01/04 09:36:07;;;;;;;33.13;17.27;;;;;;;8.37;100.00;101954.44;5005348;28;20049;-77
2023/01/04 09:38:34;;;;;;;22.95;16.52;;;;;;;8.53;100.00;101950.66;5012081;28;20050;-76
2023/01/04 09:41:29;;;;;;;48.92;18.38;;;;;;;8.20;100.00;101959.09;5013250;28;20113;-77
2023/01/04 09:44:02;;;;;;;24.27;14.45;;;;;;;7.51;100.00;101797.28;5012023;28;20217;-76
2023/01/04 09:46:37;;;;;;;20.20;13.68;;;;;;;7.82;100.00;101827.97;5008193;28;20080;-77
2023/01/04 09:49:21;;;;;;;41.08;14.55;;;;;;;8.49;100.00;101960.09;5006571;28;20401;-76
2023/01/04 09:51:59;;;;;;;19.63;14.27;;;;;;;8.41;100.00;101970.31;4996298;28;20085;-76
2023/01/04 09:54:44;;;;;;;22.73;11.95;;;;;;;8.31;100.00;101967.28;5007903;28;20151;-77
2023/01/04 09:57:25;;;;;;;20.92;12.15;;;;;;;8.52;100.00;101954.09;5000256;28;20058;-76
2023/01/04 10:00:17;;;;;;;21.33;12.25;;;;;;;8.14;100.00;101959.75;4993549;28;20481;-79
2023/01/04 10:02:55;;;;;;;26.77;13.40;;;;;;;7.43;100.00;101832.69;4995384;28;20408;-81
2023/01/04 10:05:26;;;;;;;21.42;9.88;;;;;;;7.95;100.00;101949.50;5004529;28;20152;-80
2023/01/04 10:07:52;;;;;;;18.67;11.00;;;;;;;7.80;100.00;101924.59;4999988;28;20034;-79
2023/01/04 10:10:28;;;;;;;15.30;11.07;;;;;;;8.21;100.00;101958.25;5011167;28;20046;-80
2023/01/04 10:13:22;;;;;;;18.15;10.02;;;;;;;8.35;100.00;101953.50;5003805;28;20038;-82
2023/01/04 10:16:12;;;;;;;20.42;11.63;;;;;;;7.67;100.00;101870.13;5011855;28;20034;-79
2023/01/04 10:19:12;;;;;;;35.70;10.57;;;;;;;7.72;100.00;101923.41;5009587;28;20084;-80
2023/01/04 10:22:10;;;;;;;22.48;12.32;;;;;;;7.51;100.00;101961.81;5001306;28;20142;-81
2023/01/04 10:24:54;;;;;;;19.10;11.00;;;;;;;7.32;100.00;101921.97;4998146;28;20053;-75
2023/01/04 10:27:28;;;;;;;15.32;9.70;;;;;;;7.40;100.00;101974.50;5000564;28;20089;-76
2023/01/04 10:30:02;;;;;;;18.58;10.35;;;;;;;7.38;100.00;101955.25;5005214;28;20061;-79
2023/01/04 10:32:36;;;;;;;16.45;10.95;;;;;;;6.86;100.00;101841.94;5004797;28;20045;-78
2023/01/04 10:35:17;;;;;;;15.13;9.65;;;;;;;7.47;100.00;101934.72;4999619;28;20058;-77
2023/01/04 10:37:45;;;;;;;13.48;9.00;;;;;;;7.23;100.00;101913.78;5007519;28;20041;-79
2023/01/04 10:40:16;;;;;;;16.88;9.70;;;;;;;7.49;100.00;101955.66;5004775;28;20046;-77
2023/01/04 10:43:15;;;;;;;14.68;11.20;;;;;;;7.87;100.00;101945.75;5011144;28;20084;-80
2023/01/04 10:45:50;;;;;;;14.27;10.25;;;;;;;8.00;100.00;101940.09;5008370;28;20080;-79
2023/01/04 10:48:29;;;;;;;12.93;9.10;;;;;;;8.04;100.00;101939.38;5012338;28;20042;-78
2023/01/04 10:50:59;;;;;;;17.80;8.82;;;;;;;8.04;100.00;101939.38;5002613;28;20785;-81
2023/01/04 10:53:50;;;;;;;18.92;9.10;;;;;;;7.87;100.00;101938.78;5011402;28;20493;-79
2023/01/04 10:56:23;;;;;;;12.30;6.60;;;;;;;7.81;100.00;101959.44;5000796;28;20116;-79
2023/01/04 10:58:54;;;;;;;14.02;10.00;;;;;;;7.46;100.00;101943.38;5013723;28;20033;-76
2023/01/04 11:01:28;;;;;;;11.18;8.23;;;;;;;6.30;100.00;101697.22;4995021;28;20045;-77
2023/01/04 11:04:18;;;;;;;13.45;9.73;;;;;;;7.36;100.00;101944.75;5003006;28;20045;-78
2023/01/04 11:06:49;;;;;;;11.63;8.70;;;;;;;7.80;100.00;101947.25;5006534;28;20053;-80
2023/01/04 11:09:22;;;;;;;10.60;8.48;;;;;;;7.79;100.00;101950.66;5013156;28;20111;-79
2023/01/04 11:11:49;;;;;;;12.38;5.00;;;;;;;7.71;100.00;101923.38;4994696;28;20049;-79
2023/01/04 11:14:16;;;;;;;10.73;8.00;;;;;;;7.70;100.00;101905.91;4997326;28;20460;-78
2023/01/04 11:16:49;;;;;;;11.88;8.38;;;;;;;6.84;100.00;101811.41;5008193;28;20048;-77
2023/01/04 11:19:14;;;;;;;13.10;7.70;;;;;;;7.04;100.00;101805.19;5004943;28;20811;-77
2023/01/04 11:21:55;;;;;;;17.23;8.40;;;;;;;7.04;100.00;101804.31;5004782;28;20088;-78
2023/01/04 11:24:22;;;;;;;10.77;7.88;;;;;;;7.05;100.00;101887.88;4998155;28;20429;-78
2023/01/04 11:26:49;;;;;;;12.65;9.40;;;;;;;7.03;100.00;101816.47;5006636;28;20042;-77
2023/01/04 11:29:29;;;;;;;13.38;8.45;;;;;;;7.11;100.00;101825.44;5001581;28;20052;-77
2023/01/04 11:32:00;;;;;;;8.68;4.55;;;;;;;7.36;100.00;101870.75;5005300;28;20030;-78
2023/01/04 11:34:58;;;;;;;16.92;8.52;;;;;;;8.01;100.00;101934.03;5005065;28;20061;-76
2023/01/04 11:37:26;;;;;;;21.60;10.55;;;;;;;7.94;100.00;101946.00;4954720;28;20463;-77
2023/01/04 11:40:12;;;;;;;13.93;8.70;;;;;;;6.83;100.00;101835.69;5006784;28;20152;-76
2023/01/04 11:42:38;;;;;;;16.75;9.20;;;;;;;7.73;100.00;101934.78;5004786;28;20072;-76
2023/01/04 11:45:04;;;;;;;20.67;9.43;;;;;;;7.59;100.00;101906.44;5004317;28;20081;-79
2023/01/04 11:47:29;;;;;;;18.80;8.48;;;;;;;7.12;100.00;101879.47;5002711;28;20225;-78
2023/01/04 11:49:55;;;;;;;17.15;8.02;;;;;;;7.34;100.00;101940.31;5004455;28;20758;-78
2023/01/04 11:52:30;;;;;;;12.00;9.50;;;;;;;7.38;100.00;101942.22;5009173;28;20045;-79
2023/01/04 11:54:55;;;;;;;12.02;8.40;;;;;;;6.69;100.00;101820.41;5003289;28;20600;-77
2023/01/04 11:57:21;;;;;;;15.18;8.73;;;;;;;6.96;100.00;101804.91;5004120;28;20065;-77
2023/01/04 12:00:23;;;;;;;13.15;8.32;;;;;;;7.86;100.00;101936.97;5002554;28;20145;-78
2023/01/04 12:02:49;;;;;;;20.98;9.55;;;;;;;7.82;100.00;101936.00;5006844;28;20042;-78
2023/01/04 12:05:20;;;;;;;20.70;8.57;;;;;;;7.89;100.00;101937.13;5001234;28;20022;-79
2023/01/04 12:07:46;;;;;;;21.00;9.90;;;;;;;7.91;100.00;101922.34;5004063;28;20144;-79